Time;durP1;ratioP1;P1;durP2;ratioP2;P2;SDS_P1;SDS_P2;PMS_P1;PMS_P2;Temp;Humidity;BMP_temperature;BMP_pressure;BME280_temperature;BME280_humidity;BME280_pressure;Samples;Min_cycle;Max_cycle;Signal;HPM_P1;HPM_P2
2021/12/25 00:01:24;;;;;;;34.53;15.05;;;10.40;99.90;;;;;;5024469;28;20093;-69
2021/12/25 00:03:52;;;;;;;31.27;15.05;;;10.40;99.90;;;;;;5027659;28;20036;-69
2021/12/25 00:06:18;;;;;;;32.60;14.70;;;10.40;99.90;;;;;;5024486;28;20021;-69
2021/12/25 00:08:43;;;;;;;36.25;15.02;;;10.50;99.90;;;;;;5024583;28;20120;-69
2021/12/25 00:11:10;;;;;;;32.65;14.32;;;10.50;99.90;;;;;;5024281;28;20112;-69
2021/12/25 00:13:40;;;;;;;36.45;15.93;;;10.40;99.90;;;;;;5024631;28;20021;-69
2021/12/25 00:16:07;;;;;;;42.07;16.60;;;10.40;99.90;;;;;;5027163;28;20026;-69
2021/12/25 00:18:34;;;;;;;36.38;15.43;;;10.40;99.90;;;;;;5027259;28;20261;-69
2021/12/25 00:21:00;;;;;;;39.67;16.55;;;10.40;99.90;;;;;;5023626;28;20049;-69
2021/12/25 00:23:26;;;;;;;37.80;15.93;;;10.30;99.90;;;;;;5024045;28;20464;-69
2021/12/25 00:26:00;;;;;;;33.47;15.80;;;10.30;99.90;;;;;;5024251;28;20034;-69
2021/12/25 00:31:28;;;;;;;40.30;16.83;;;10.30;99.90;;;;;;5028735;28;20049;-69
2021/12/25 00:33:59;;;;;;;30.17;16.05;;;10.40;99.90;;;;;;5028239;28;20080;-69
2021/12/25 00:36:25;;;;;;;33.47;16.00;;;10.30;99.90;;;;;;5023852;28;20021;-69
2021/12/25 00:38:52;;;;;;;42.13;17.00;;;10.30;99.90;;;;;;5023527;28;20053;-69
2021/12/25 00:41:20;;;;;;;38.33;17.10;;;10.30;99.90;;;;;;5024235;28;20021;-69
2021/12/25 00:43:47;;;;;;;36.33;16.40;;;10.30;99.90;;;;;;5024125;28;20113;-69
2021/12/25 00:46:13;;;;;;;36.58;15.30;;;10.30;99.90;;;;;;5026289;28;20013;-69
2021/12/25 00:48:39;;;;;;;34.75;16.70;;;10.30;99.90;;;;;;5025816;28;20041;-69
2021/12/25 00:51:05;;;;;;;33.30;15.90;;;10.30;99.90;;;;;;5023808;28;20152;-69
2021/12/25 00:53:31;;;;;;;38.17;16.83;;;10.30;99.90;;;;;;5023876;28;20021;-69
2021/12/25 00:55:57;;;;;;;35.85;16.48;;;10.30;99.90;;;;;;5023671;28;20052;-69
2021/12/25 00:58:23;;;;;;;36.38;16.20;;;10.30;99.90;;;;;;5025064;28;20079;-69
2021/12/25 01:00:51;;;;;;;29.52;14.23;;;10.30;99.90;;;;;;5026602;28;20623;-69
2021/12/25 01:03:17;;;;;;;41.47;17.25;;;10.30;99.90;;;;;;5023549;28;20032;-69
2021/12/25 01:05:43;;;;;;;34.72;16.75;;;10.30;99.90;;;;;;5023651;28;20034;-69
2021/12/25 01:08:10;;;;;;;36.88;15.57;;;10.30;99.90;;;;;;5024145;28;20032;-69
2021/12/25 01:10:36;;;;;;;33.35;16.27;;;10.30;99.90;;;;;;5023910;28;20521;-69
2021/12/25 01:13:13;;;;;;;32.45;14.60;;;10.20;99.90;;;;;;5030148;28;20037;-69
2021/12/25 01:49:53;;;;;;;30.85;14.10;;;10.10;99.90;;;;;;5027198;28;20056;-69
2021/12/25 01:52:25;;;;;;;45.17;15.43;;;10.10;99.90;;;;;;5028307;28;20195;-69
2021/12/25 01:54:50;;;;;;;34.53;14.85;;;10.10;99.90;;;;;;5030477;28;20025;-69
2021/12/25 01:57:16;;;;;;;37.33;16.38;;;10.00;99.90;;;;;;5027120;28;20247;-69
2021/12/25 01:59:42;;;;;;;35.65;16.38;;;10.00;99.90;;;;;;5028818;28;20045;-69
2021/12/25 02:02:08;;;;;;;47.30;16.40;;;9.90;99.90;;;;;;5026586;28;20503;-69
2021/12/25 02:04:34;;;;;;;37.95;18.88;;;9.90;99.90;;;;;;5027148;28;20052;-69
2021/12/25 02:06:59;;;;;;;42.70;18.77;;;9.90;99.90;;;;;;5031139;28;20032;-69
2021/12/25 02:09:25;;;;;;;41.95;18.00;;;9.80;99.90;;;;;;5025960;28;20072;-69
2021/12/25 02:11:52;;;;;;;45.63;18.48;;;9.70;99.90;;;;;;5026567;28;20064;-69
2021/12/25 02:14:18;;;;;;;53.35;18.25;;;9.70;99.90;;;;;;5026722;28;20476;-69
2021/12/25 02:16:58;;;;;;;46.65;18.50;;;9.70;99.90;;;;;;5026468;28;20036;-69
2021/12/25 02:19:43;;;;;;;45.83;18.23;;;9.60;99.90;;;;;;5027325;28;20030;-69
2021/12/25 02:22:10;;;;;;;49.53;19.05;;;9.60;99.90;;;;;;5025969;28;20030;-69
2021/12/25 02:24:36;;;;;;;43.80;18.55;;;9.50;99.90;;;;;;5027913;28;20073;-69
2021/12/25 02:27:04;;;;;;;43.45;18.48;;;9.50;99.90;;;;;;5026385;28;20049;-69
2021/12/25 02:29:30;;;;;;;49.92;20.05;;;9.40;99.90;;;;;;5025629;28;20397;-69
2021/12/25 02:31:57;;;;;;;46.65;18.95;;;9.40;99.90;;;;;;5026529;28;20560;-69
2021/12/25 02:34:22;;;;;;;45.00;20.30;;;9.30;99.90;;;;;;5027480;28;20033;-69
2021/12/25 02:36:48;;;;;;;46.83;19.00;;;9.30;99.90;;;;;;5029205;28;20399;-69
2021/12/25 02:39:14;;;;;;;44.38;19.88;;;9.30;99.90;;;;;;5025538;28;20032;-69
2021/12/25 02:41:40;;;;;;;45.78;20.75;;;9.30;99.90;;;;;;5026102;28;20053;-69
2021/12/25 02:44:06;;;;;;;60.38;21.30;;;9.30;99.90;;;;;;5028095;28;20021;-69
2021/12/25 02:46:32;;;;;;;48.60;20.45;;;9.30;99.90;;;;;;5026271;28;20116;-69
2021/12/25 02:48:59;;;;;;;42.38;18.90;;;9.30;99.90;;;;;;5029722;28;20096;-69
2021/12/25 02:51:25;;;;;;;48.30;20.17;;;9.30;99.90;;;;;;5025651;28;20493;-69
2021/12/25 02:53:51;;;;;;;42.72;18.27;;;9.30;99.90;;;;;;5025599;28;20029;-69
2021/12/25 02:56:17;;;;;;;44.90;18.90;;;9.30;99.90;;;;;;5025340;28;20048;-69
2021/12/25 02:58:42;;;;;;;44.40;18.15;;;9.30;99.90;;;;;;5026222;28;20429;-69
2021/12/25 03:01:13;;;;;;;47.42;18.52;;;9.30;99.90;;;;;;5027980;28;20025;-69
2021/12/25 03:03:40;;;;;;;40.97;18.27;;;9.20;99.90;;;;;;5027394;28;20048;-69
2021/12/25 03:06:08;;;;;;;39.78;17.80;;;9.20;99.90;;;;;;5025232;28;20305;-69
2021/12/25 03:08:34;;;;;;;42.03;17.48;;;9.20;99.90;;;;;;5025816;28;20033;-69
2021/12/25 03:11:02;;;;;;;45.92;17.60;;;9.20;99.90;;;;;;5025637;28;20100;-69
2021/12/25 03:16:14;;;;;;;42.08;17.02;;;9.10;99.90;;;;;;5025541;28;20090;-69
2021/12/25 03:18:50;;;;;;;39.65;16.17;;;9.10;99.90;;;;;;5027319;28;20017;-69
2021/12/25 03:21:18;;;;;;;44.35;17.48;;;9.10;99.90;;;;;;5025452;28;20231;-69
2021/12/25 03:23:45;;;;;;;41.53;16.80;;;9.10;99.90;;;;;;5026893;28;20022;-69
2021/12/25 03:26:12;;;;;;;40.63;16.30;;;9.10;99.90;;;;;;5025283;28;20029;-69
2021/12/25 03:28:42;;;;;;;45.38;17.60;;;9.10;99.90;;;;;;5024957;28;20057;-69
2021/12/25 03:31:16;;;;;;;45.40;16.67;;;9.00;99.90;;;;;;5027538;28;20040;-69
2021/12/25 03:33:44;;;;;;;39.95;16.67;;;9.00;99.90;;;;;;5026416;28;20053;-69
2021/12/25 03:36:10;;;;;;;46.97;17.02;;;9.10;99.90;;;;;;5024552;28;20473;-69
2021/12/25 03:38:36;;;;;;;48.58;17.13;;;9.00;99.90;;;;;;5024995;28;20144;-69
2021/12/25 03:41:06;;;;;;;34.58;15.23;;;9.10;99.90;;;;;;5024979;28;20104;-69
2021/12/25 03:43:34;;;;;;;45.75;16.75;;;9.10;99.90;;;;;;5009504;28;20097;-69
2021/12/25 03:45:59;;;;;;;38.83;15.48;;;9.20;99.90;;;;;;5025295;28;20032;-69
2021/12/25 03:59:01;;;;;;;35.80;13.80;;;9.50;99.90;;;;;;5024452;28;20033;-69
2021/12/25 04:02:05;;;;;;;38.60;16.52;;;9.50;99.90;;;;;;5026139;28;20116;-69
2021/12/25 04:04:25;;;;;;;35.25;15.82;;;9.50;99.90;;;;;;5025515;28;20064;-69
2021/12/25 04:07:09;;;;;;;40.25;15.80;;;9.60;99.90;;;;;;5027892;28;20035;-69
2021/12/25 04:09:37;;;;;;;37.35;15.80;;;9.70;99.90;;;;;;5027072;28;20033;-69
2021/12/25 04:12:12;;;;;;;34.72;13.85;;;9.70;99.90;;;;;;5024780;28;20500;-69
2021/12/25 04:14:40;;;;;;;37.47;16.27;;;9.80;99.90;;;;;;5024318;28;20071;-69
2021/12/25 04:17:06;;;;;;;42.03;16.05;;;9.80;99.90;;;;;;5024107;28;20039;-69
2021/12/25 04:19:33;;;;;;;37.03;15.93;;;9.80;99.90;;;;;;5024344;28;20033;-69
2021/12/25 04:22:06;;;;;;;37.90;13.65;;;9.80;99.90;;;;;;5028876;28;20021;-69
2021/12/25 04:24:37;;;;;;;43.67;16.27;;;9.90;99.90;;;;;;5025636;28;20489;-69
2021/12/25 04:27:07;;;;;;;41.28;16.30;;;9.90;99.90;;;;;;5024105;28;20068;-69
2021/12/25 04:29:40;;;;;;;43.83;15.00;;;9.90;99.90;;;;;;5024186;28;20060;-69
2021/12/25 04:32:46;;;;;;;42.35;15.07;;;10.00;99.90;;;;;;5024005;28;20061;-69
2021/12/25 05:02:23;;;;;;;28.65;10.73;;;10.20;99.90;;;;;;5027218;28;20083;-69
2021/12/25 05:04:55;;;;;;;44.58;14.35;;;10.30;99.90;;;;;;5028272;28;20030;-69
2021/12/25 05:07:21;;;;;;;44.10;11.90;;;10.30;99.90;;;;;;5029421;28;20051;-69
2021/12/25 05:09:47;;;;;;;35.25;13.35;;;10.30;99.90;;;;;;5030615;28;20104;-69
2021/12/25 05:12:12;;;;;;;38.20;12.43;;;10.30;99.90;;;;;;5027060;28;20768;-69
2021/12/25 05:14:39;;;;;;;48.45;14.00;;;10.40;99.90;;;;;;5027678;28;20039;-69
2021/12/25 05:17:06;;;;;;;39.40;12.70;;;10.40;99.90;;;;;;5028076;28;20403;-69
2021/12/25 05:19:32;;;;;;;36.92;11.35;;;10.40;99.90;;;;;;5012277;28;20018;-69
2021/12/25 05:21:58;;;;;;;31.08;10.95;;;10.40;99.90;;;;;;5031934;28;20112;-69
2021/12/25 05:24:24;;;;;;;29.70;10.70;;;10.40;99.90;;;;;;5027652;28;20108;-69
2021/12/25 05:26:50;;;;;;;37.45;11.02;;;10.40;99.90;;;;;;5027491;28;20030;-69
2021/12/25 05:29:23;;;;;;;27.08;9.90;;;10.50;99.90;;;;;;5026518;28;20555;-69
2021/12/25 05:31:50;;;;;;;30.67;10.93;;;10.50;99.90;;;;;;5027604;28;20041;-69
2021/12/25 05:34:15;;;;;;;23.88;9.73;;;10.50;99.90;;;;;;5029420;28;20020;-69
2021/12/25 05:36:41;;;;;;;26.73;10.30;;;10.50;99.90;;;;;;5029424;28;20132;-69
2021/12/25 05:39:11;;;;;;;22.65;8.02;;;10.50;99.90;;;;;;5026573;28;20155;-69
2021/12/25 05:41:37;;;;;;;28.02;10.13;;;10.50;99.90;;;;;;5027161;28;20401;-69
2021/12/25 05:44:03;;;;;;;33.65;10.00;;;10.50;99.90;;;;;;5026987;28;20033;-69
2021/12/25 05:46:29;;;;;;;37.03;9.82;;;10.50;99.90;;;;;;5027493;28;20044;-69
2021/12/25 05:48:55;;;;;;;23.58;8.55;;;10.50;99.90;;;;;;5030439;28;20025;-69
2021/12/25 05:51:21;;;;;;;26.65;9.60;;;10.50;99.90;;;;;;5027025;28;20029;-69
2021/12/25 05:53:47;;;;;;;21.85;9.45;;;10.50;99.90;;;;;;5026642;28;20108;-69
2021/12/25 05:56:13;;;;;;;14.18;6.22;;;10.50;99.90;;;;;;5027096;28;20036;-69
2021/12/25 05:58:39;;;;;;;25.08;8.85;;;10.50;99.90;;;;;;5026198;28;20030;-69
2021/12/25 06:01:06;;;;;;;25.67;9.65;;;10.50;99.90;;;;;;5030290;28;20381;-69
2021/12/25 06:03:32;;;;;;;21.38;9.02;;;10.50;99.90;;;;;;5028081;28;20065;-69
2021/12/25 06:05:59;;;;;;;25.15;8.65;;;10.50;99.90;;;;;;5026648;28;20030;-69
2021/12/25 06:08:25;;;;;;;32.75;8.93;;;10.50;99.90;;;;;;5025956;28;20436;-69
2021/12/25 06:10:52;;;;;;;21.20;8.77;;;10.50;99.90;;;;;;5027009;28;20521;-69
2021/12/25 06:13:20;;;;;;;28.42;9.18;;;10.50;99.90;;;;;;5028004;28;20120;-69
2021/12/25 06:15:46;;;;;;;24.02;7.80;;;10.50;99.90;;;;;;5029850;28;20405;-69
2021/12/25 06:18:12;;;;;;;20.80;8.15;;;10.50;99.90;;;;;;5026146;28;20384;-69
2021/12/25 06:20:38;;;;;;;16.98;7.30;;;10.40;99.90;;;;;;5026600;28;20037;-69
2021/12/25 06:23:04;;;;;;;19.02;6.53;;;10.40;99.90;;;;;;5026285;28;20310;-69
2021/12/25 06:25:30;;;;;;;22.20;8.13;;;10.40;99.90;;;;;;5026413;28;20084;-69
2021/12/25 06:27:56;;;;;;;17.23;6.57;;;10.40;99.90;;;;;;5030877;28;20036;-69
2021/12/25 06:30:22;;;;;;;23.98;8.40;;;10.40;99.90;;;;;;5025640;28;20148;-69
2021/12/25 06:32:48;;;;;;;14.57;6.85;;;10.40;99.90;;;;;;5026275;28;20029;-69
2021/12/25 06:35:14;;;;;;;20.38;7.25;;;10.40;99.90;;;;;;5026393;28;20505;-69
2021/12/25 06:37:42;;;;;;;11.07;6.05;;;10.30;99.90;;;;;;5026564;28;20505;-69
2021/12/25 06:40:10;;;;;;;17.92;7.78;;;10.40;99.90;;;;;;5028575;28;20030;-69
2021/12/25 06:42:37;;;;;;;16.25;7.32;;;10.40;99.90;;;;;;5027479;28;20110;-69
2021/12/25 06:45:03;;;;;;;13.15;6.60;;;10.40;99.90;;;;;;5026162;28;20029;-69
2021/12/25 06:47:29;;;;;;;16.38;6.60;;;10.40;99.90;;;;;;5025754;28;20021;-69
2021/12/25 06:49:55;;;;;;;18.25;7.13;;;10.30;99.90;;;;;;5026106;28;20029;-69
2021/12/25 06:52:21;;;;;;;15.07;6.30;;;10.30;99.90;;;;;;5026035;28;20044;-69
2021/12/25 06:54:47;;;;;;;17.45;7.20;;;10.30;99.90;;;;;;5028802;28;20161;-69
2021/12/25 06:57:12;;;;;;;18.95;8.35;;;10.20;99.90;;;;;;5025833;28;20036;-69
2021/12/25 06:59:38;;;;;;;20.92;8.40;;;10.20;99.90;;;;;;5025465;28;20029;-69
2021/12/25 07:02:04;;;;;;;15.32;6.53;;;10.20;99.90;;;;;;5025512;28;20388;-69
2021/12/25 07:04:30;;;;;;;15.68;7.05;;;10.10;99.90;;;;;;5026381;28;20029;-69
2021/12/25 07:06:56;;;;;;;18.17;8.00;;;10.10;99.90;;;;;;5029037;28;20100;-69
2021/12/25 07:09:21;;;;;;;16.98;8.10;;;10.10;99.90;;;;;;5024470;28;20037;-69
2021/12/25 07:11:48;;;;;;;15.52;7.80;;;10.10;99.90;;;;;;5025643;28;20037;-69
2021/12/25 07:14:14;;;;;;;15.63;7.30;;;10.00;99.90;;;;;;5025799;28;20029;-69
2021/12/25 07:16:40;;;;;;;18.08;6.80;;;10.00;99.90;;;;;;5025693;28;20564;-69
2021/12/25 07:19:06;;;;;;;15.90;7.10;;;10.00;99.90;;;;;;5028085;28;20115;-69
2021/12/25 07:21:32;;;;;;;17.25;7.18;;;10.00;99.90;;;;;;5026731;28;20025;-69
2021/12/25 07:23:58;;;;;;;16.52;6.43;;;10.00;99.90;;;;;;5025701;28;20038;-69
2021/12/25 07:26:24;;;;;;;24.30;8.50;;;10.00;99.90;;;;;;5024915;28;20455;-69
2021/12/25 07:28:50;;;;;;;19.27;6.68;;;10.10;99.90;;;;;;5024910;28;20050;-69
2021/12/25 07:31:18;;;;;;;16.15;7.70;;;10.10;99.90;;;;;;5027039;28;20400;-69
2021/12/25 07:33:44;;;;;;;19.05;7.97;;;10.10;99.90;;;;;;5027695;28;20037;-69
2021/12/25 07:36:11;;;;;;;15.20;7.13;;;10.10;99.90;;;;;;5024692;28;20033;-69
2021/12/25 07:38:37;;;;;;;13.63;7.68;;;10.10;99.90;;;;;;5025098;28;20302;-69
2021/12/25 07:41:03;;;;;;;21.15;7.97;;;10.10;99.90;;;;;;5025015;28;20052;-69
2021/12/25 07:43:30;;;;;;;26.23;8.10;;;10.10;99.90;;;;;;5009850;28;20021;-69
2021/12/25 07:45:56;;;;;;;16.73;6.88;;;10.10;99.90;;;;;;5028672;28;20488;-69
2021/12/25 07:48:24;;;;;;;21.67;8.98;;;10.10;99.90;;;;;;5023921;28;20030;-69
2021/12/25 07:50:51;;;;;;;19.00;8.95;;;10.20;99.90;;;;;;5024454;28;20037;-69
2021/12/25 07:53:17;;;;;;;14.65;8.43;;;10.20;99.90;;;;;;5024838;28;20033;-69
2021/12/25 07:55:43;;;;;;;17.92;8.02;;;10.20;99.90;;;;;;5024977;28;20026;-69
2021/12/25 07:58:09;;;;;;;16.60;8.95;;;10.20;99.90;;;;;;5027275;28;20230;-69
2021/12/25 08:00:35;;;;;;;21.08;8.88;;;10.20;99.90;;;;;;5026599;28;20021;-69
2021/12/25 08:03:02;;;;;;;17.63;8.95;;;10.30;99.90;;;;;;5025211;28;20037;-69
2021/12/25 08:05:28;;;;;;;22.02;9.57;;;10.30;99.90;;;;;;5024087;28;20025;-69
2021/12/25 08:07:53;;;;;;;17.20;8.48;;;10.20;99.90;;;;;;5024359;28;20543;-69
2021/12/25 08:10:20;;;;;;;17.10;9.02;;;10.30;99.90;;;;;;5026294;28;20030;-69
2021/12/25 08:12:58;;;;;;;16.85;8.15;;;10.30;99.90;;;;;;5027238;28;20018;-69
2021/12/25 08:15:27;;;;;;;22.80;9.80;;;10.30;99.90;;;;;;5024413;28;20029;-69
2021/12/25 08:17:54;;;;;;;21.60;9.75;;;10.30;99.90;;;;;;5024152;28;20021;-69
2021/12/25 08:20:20;;;;;;;21.60;9.05;;;10.30;99.90;;;;;;5024152;28;20025;-69
2021/12/25 08:22:46;;;;;;;17.40;8.77;;;10.30;99.90;;;;;;5024604;28;20409;-69
2021/12/25 08:25:14;;;;;;;19.65;8.40;;;10.30;99.90;;;;;;5026479;28;20025;-69
2021/12/25 08:27:42;;;;;;;18.30;9.00;;;10.30;99.90;;;;;;5026567;28;20018;-70
2021/12/25 08:30:12;;;;;;;20.42;8.70;;;10.30;99.90;;;;;;5024007;28;20049;-69
2021/12/25 08:32:41;;;;;;;20.98;9.15;;;10.30;99.90;;;;;;5024676;28;20045;-69
2021/12/25 08:35:09;;;;;;;20.48;9.73;;;10.40;99.90;;;;;;5023657;28;20044;-69
2021/12/25 08:37:34;;;;;;;20.85;10.70;;;10.40;99.90;;;;;;5024502;28;20033;-69
2021/12/25 08:40:01;;;;;;;18.60;9.63;;;10.40;99.90;;;;;;5028652;28;20026;-69
2021/12/25 08:42:27;;;;;;;19.20;9.25;;;10.40;99.90;;;;;;5024704;28;20037;-69
2021/12/25 08:47:26;;;;;;;17.67;8.85;;;10.50;99.90;;;;;;5024079;28;20029;-69
2021/12/25 08:49:52;;;;;;;18.35;9.23;;;10.50;99.90;;;;;;5023867;28;20042;-69
2021/12/25 08:52:20;;;;;;;20.95;10.05;;;10.50;99.90;;;;;;5025665;28;20043;-69
2021/12/25 08:54:48;;;;;;;19.77;10.77;;;10.50;99.90;;;;;;5026752;28;20036;-69
2021/12/25 08:57:16;;;;;;;20.27;9.35;;;10.60;99.90;;;;;;5023780;28;20025;-69
2021/12/25 08:59:42;;;;;;;19.48;8.85;;;10.60;99.90;;;;;;5024022;28;20078;-69
2021/12/25 09:02:12;;;;;;;19.15;9.35;;;10.60;99.90;;;;;;5024148;28;20041;-69
2021/12/25 09:04:40;;;;;;;15.98;7.60;;;10.70;99.90;;;;;;5023831;28;20493;-69
2021/12/25 09:07:06;;;;;;;18.33;8.73;;;10.70;99.90;;;;;;5026956;28;20026;-69
2021/12/25 09:09:32;;;;;;;23.85;9.02;;;10.70;99.90;;;;;;5025923;28;20104;-69
2021/12/25 09:11:58;;;;;;;21.08;8.75;;;10.70;99.90;;;;;;5023620;28;20112;-69
2021/12/25 09:14:24;;;;;;;18.23;8.63;;;10.80;99.90;;;;;;5023428;28;20586;-69
2021/12/25 09:16:51;;;;;;;15.60;6.80;;;10.80;99.90;;;;;;5023919;28;20044;-69
2021/12/25 09:19:16;;;;;;;14.48;6.55;;;10.80;99.90;;;;;;5025636;28;20493;-69
2021/12/25 09:21:42;;;;;;;12.88;5.90;;;10.90;99.90;;;;;;5026156;28;20072;-69
2021/12/25 09:24:08;;;;;;;11.52;5.55;;;11.00;99.90;;;;;;5023743;28;20033;-69
2021/12/25 09:26:34;;;;;;;14.50;5.53;;;11.10;99.90;;;;;;5023779;28;20061;-69
2021/12/25 09:29:00;;;;;;;12.48;5.53;;;11.20;99.90;;;;;;5023362;28;20041;-69
2021/12/25 09:31:26;;;;;;;11.63;5.47;;;11.30;99.90;;;;;;5024252;28;20026;-69
2021/12/25 09:33:52;;;;;;;12.27;5.82;;;11.40;99.90;;;;;;5029535;28;20048;-69
2021/12/25 09:36:19;;;;;;;11.18;5.50;;;11.50;99.90;;;;;;5026730;28;20476;-69
2021/12/25 09:38:45;;;;;;;10.80;4.88;;;11.60;99.90;;;;;;5027214;28;20029;-69
2021/12/25 09:41:11;;;;;;;8.75;4.82;;;11.60;99.90;;;;;;5027740;28;20473;-69
2021/12/25 09:43:39;;;;;;;10.00;4.25;;;11.60;99.90;;;;;;5027277;28;20026;-70
2021/12/25 09:46:05;;;;;;;11.52;5.22;;;11.50;99.90;;;;;;5030102;28;20026;-70
2021/12/25 09:48:31;;;;;;;10.68;4.20;;;11.50;99.90;;;;;;5028241;28;20556;-70
2021/12/25 09:50:57;;;;;;;12.27;5.10;;;11.50;99.90;;;;;;5026933;28;20116;-69
2021/12/25 09:53:23;;;;;;;10.88;5.20;;;11.50;99.90;;;;;;5028009;28;20029;-70
2021/12/25 09:55:51;;;;;;;10.25;4.80;;;11.40;99.90;;;;;;5027582;28;20057;-69
2021/12/25 09:58:17;;;;;;;9.65;4.82;;;11.50;99.90;;;;;;5029251;28;20064;-69
2021/12/25 10:00:46;;;;;;;11.10;4.95;;;11.40;99.90;;;;;;5028826;28;20112;-69
2021/12/25 10:03:12;;;;;;;12.63;5.80;;;11.40;99.90;;;;;;5026786;28;20033;-69
2021/12/25 10:05:43;;;;;;;15.73;6.15;;;11.40;99.90;;;;;;5026131;28;20511;-69
2021/12/25 10:08:12;;;;;;;11.55;5.40;;;11.40;99.90;;;;;;5026812;28;20020;-69
2021/12/25 10:10:43;;;;;;;13.27;5.93;;;11.40;99.90;;;;;;5026479;28;20061;-70
2021/12/25 10:13:40;;;;;;;11.48;5.35;;;11.40;99.90;;;;;;5029013;28;20477;-70
2021/12/25 10:16:22;;;;;;;8.50;4.55;;;11.40;99.90;;;;;;5029210;28;20037;-70
2021/12/25 10:18:49;;;;;;;11.82;5.28;;;11.40;99.90;;;;;;5029275;28;20037;-69
2021/12/25 10:21:29;;;;;;;9.90;4.85;;;11.40;99.90;;;;;;5026285;28;20021;-69
2021/12/25 10:24:18;;;;;;;11.13;4.40;;;11.50;99.90;;;;;;5026066;28;20053;-69
2021/12/25 10:26:47;;;;;;;10.68;5.22;;;11.50;99.90;;;;;;5026489;28;20083;-70
2021/12/25 10:29:28;;;;;;;13.00;5.78;;;11.60;99.90;;;;;;5026001;28;20517;-70
2021/12/25 10:31:58;;;;;;;13.40;4.93;;;11.80;99.90;;;;;;5026690;28;20128;-69
2021/12/25 10:34:29;;;;;;;8.70;5.07;;;12.00;99.90;;;;;;5027660;28;20022;-69
2021/12/25 10:37:04;;;;;;;;;;;12.10;99.90;;;;;;5030981;28;20072;-69
2021/12/25 10:39:30;;;;;;;11.40;5.00;;;12.20;99.90;;;;;;5027592;28;20415;-69
2021/12/25 10:42:09;;;;;;;10.80;5.47;;;12.30;99.90;;;;;;5025549;28;20096;-69
2021/12/25 10:44:45;;;;;;;11.10;5.50;;;12.30;99.90;;;;;;5025890;28;20559;-70
2021/12/25 10:47:25;;;;;;;9.70;5.20;;;12.30;99.90;;;;;;5025985;28;20420;-70
2021/12/25 10:49:58;;;;;;;7.53;4.57;;;12.30;99.90;;;;;;5025429;28;20088;-70
2021/12/25 10:52:30;;;;;;;8.48;4.72;;;12.20;99.90;;;;;;5027656;28;20030;-70
2021/12/25 10:55:06;;;;;;;9.30;4.82;;;12.30;99.90;;;;;;5030279;28;20099;-69
2021/12/25 10:57:34;;;;;;;10.40;4.35;;;12.50;99.50;;;;;;5027164;28;20037;-69
2021/12/25 11:00:04;;;;;;;9.57;4.70;;;12.90;98.20;;;;;;5026077;28;20025;-70
2021/12/25 11:02:45;;;;;;;8.10;4.03;;;13.30;96.70;;;;;;5025114;28;20029;-69
2021/12/25 11:05:21;;;;;;;8.60;4.50;;;13.70;95.10;;;;;;5025444;28;20028;-69
2021/12/25 11:08:00;;;;;;;8.27;4.32;;;14.30;93.50;;;;;;5027364;28;20033;-70
2021/12/25 11:10:25;;;;;;;9.77;4.47;;;14.90;91.50;;;;;;5027438;28;20041;-70
2021/12/25 11:12:51;;;;;;;6.13;3.75;;;14.90;90.80;;;;;;5029714;28;20025;-70
2021/12/25 11:15:22;;;;;;;6.63;3.60;;;14.90;90.80;;;;;;5025815;28;20447;-69
2021/12/25 11:17:53;;;;;;;;;;;14.70;89.90;;;;;;5026241;28;20029;-69
2021/12/25 11:20:27;;;;;;;;;;;14.70;90.50;;;;;;5025501;28;19905;-69
2021/12/25 11:22:56;;;;;;;8.63;3.83;;;15.00;88.90;;;;;;5025361;28;19917;-69
2021/12/25 11:25:27;;;;;;;7.40;3.53;;;15.20;89.00;;;;;;5025997;28;20033;-69
2021/12/25 11:27:54;;;;;;;7.15;3.58;;;15.20;87.70;;;;;;5028582;28;20076;-69
2021/12/25 11:30:23;;;;;;;5.88;3.35;;;16.20;83.90;;;;;;5024895;28;20053;-69
2021/12/25 11:32:51;;;;;;;7.40;3.30;;;16.40;81.30;;;;;;5025196;28;20029;-69
2021/12/25 11:35:19;;;;;;;7.90;5.40;;;17.00;79.40;;;;;;5024829;28;20029;-69
2021/12/25 11:37:47;;;;;;;8.07;5.47;;;18.10;77.90;;;;;;5024974;28;20104;-70
2021/12/25 11:40:15;;;;;;;6.97;4.80;;;19.80;70.10;;;;;;5027577;28;20432;-70
2021/12/25 11:42:45;;;;;;;6.25;3.28;;;19.70;68.80;;;;;;5026441;28;20030;-70
2021/12/25 11:45:30;;;;;;;8.65;3.47;;;19.00;67.60;;;;;;5024932;28;20029;-70
2021/12/25 11:48:19;;;;;;;8.98;3.50;;;18.20;70.80;;;;;;5025236;28;20500;-70
2021/12/25 11:50:49;;;;;;;5.00;2.63;;;17.90;72.00;;;;;;5024895;28;20132;-70
2021/12/25 11:53:25;;;;;;;7.18;3.60;;;17.40;72.50;;;;;;5026358;28;20022;-70
2021/12/25 11:58:48;;;;;;;6.68;3.22;;;16.90;75.90;;;;;;5009280;28;20089;-70
2021/12/25 12:01:27;;;;;;;6.15;3.08;;;16.60;77.00;;;;;;5026676;28;20558;-70
2021/12/25 12:04:01;;;;;;;8.60;3.72;;;16.40;77.70;;;;;;5028551;28;20045;-70
2021/12/25 12:06:48;;;;;;;7.53;3.85;;;16.30;78.00;;;;;;5024579;28;20022;-69
2021/12/25 12:09:16;;;;;;;10.50;3.50;;;16.20;79.10;;;;;;5024496;28;20033;-69
2021/12/25 12:11:49;;;;;;;6.65;3.15;;;16.10;79.20;;;;;;5024192;28;20033;-69
2021/12/25 12:14:23;;;;;;;7.90;3.97;;;16.00;79.90;;;;;;5023953;28;20049;-69
2021/12/25 12:16:55;;;;;;;6.85;3.72;;;15.90;80.60;;;;;;5024082;28;20081;-69
2021/12/25 12:19:33;;;;;;;7.15;3.58;;;15.80;81.30;;;;;;5026104;28;20273;-69
2021/12/25 12:22:15;;;;;;;6.22;3.63;;;15.60;81.80;;;;;;5028652;28;20128;-69
2021/12/25 12:27:10;;;;;;;10.05;4.85;;;15.20;83.50;;;;;;5023876;28;20065;-69
2021/12/25 12:29:39;;;;;;;8.55;4.78;;;15.00;85.10;;;;;;5024116;28;20372;-69
2021/12/25 12:32:20;;;;;;;9.38;5.30;;;14.90;83.80;;;;;;5024883;28;20384;-69
2021/12/25 12:34:53;;;;;;;;;;;14.70;85.50;;;;;;5010496;28;20034;-69
2021/12/25 12:37:19;;;;;;;8.48;4.15;;;14.50;86.60;;;;;;5025414;28;19905;-69
2021/12/25 12:39:59;;;;;;;8.60;4.80;;;14.40;87.10;;;;;;5026905;28;20029;-69
2021/12/25 12:42:41;;;;;;;11.17;6.10;;;14.20;88.00;;;;;;5024568;28;20406;-69
2021/12/25 12:45:27;;;;;;;11.85;5.20;;;14.10;88.80;;;;;;5024172;28;20041;-69
2021/12/25 12:48:23;;;;;;;11.77;5.97;;;13.90;89.20;;;;;;5024052;28;20038;-69
2021/12/25 12:50:55;;;;;;;12.70;7.13;;;13.80;90.40;;;;;;5019008;28;20060;-69
2021/12/25 12:53:22;;;;;;;12.73;7.18;;;13.80;90.70;;;;;;5023929;28;20124;-69
2021/12/25 12:55:54;;;;;;;10.68;6.68;;;13.70;91.00;;;;;;5023896;28;20361;-69
2021/12/25 12:58:20;;;;;;;12.57;6.55;;;13.70;91.10;;;;;;5025593;28;20021;-69
2021/12/25 13:00:55;;;;;;;11.93;7.57;;;13.70;91.30;;;;;;5026810;28;20040;-69
2021/12/25 13:03:22;;;;;;;12.07;7.32;;;13.70;91.60;;;;;;5024122;28;20037;-69
2021/12/25 13:06:04;;;;;;;11.38;6.43;;;13.70;91.60;;;;;;5023969;28;20034;-69
2021/12/25 13:08:33;;;;;;;12.60;7.10;;;13.70;91.70;;;;;;5028129;28;20027;-69
2021/12/25 13:11:10;;;;;;;8.90;5.93;;;13.80;91.60;;;;;;5027567;28;20041;-69
2021/12/25 13:13:41;;;;;;;10.43;6.00;;;13.90;91.40;;;;;;5012938;28;20026;-69
2021/12/25 13:16:12;;;;;;;13.68;6.82;;;13.80;91.50;;;;;;5030164;28;20025;-69
2021/12/25 13:18:50;;;;;;;12.35;7.13;;;13.80;91.70;;;;;;5031103;28;20412;-69
2021/12/25 13:21:22;;;;;;;13.80;7.75;;;13.90;91.60;;;;;;5027616;28;20025;-69
2021/12/25 13:23:53;;;;;;;12.13;7.43;;;14.00;91.40;;;;;;5027442;28;20033;-69
2021/12/25 13:26:32;;;;;;;12.98;8.00;;;14.10;91.20;;;;;;5027668;28;20633;-69
2021/12/25 13:29:00;;;;;;;13.23;8.95;;;14.10;91.00;;;;;;5027523;28;20042;-69
2021/12/25 13:31:29;;;;;;;16.13;9.45;;;14.10;90.90;;;;;;5028180;28;20132;-69
2021/12/25 13:34:00;;;;;;;13.98;9.07;;;14.10;90.80;;;;;;5030420;28;20020;-69
2021/12/25 13:36:31;;;;;;;13.63;8.60;;;14.10;90.60;;;;;;5027450;28;20045;-69
2021/12/25 13:39:08;;;;;;;13.85;7.85;;;14.10;90.60;;;;;;5027293;28;20440;-69
2021/12/25 13:41:44;;;;;;;15.07;7.63;;;13.90;90.80;;;;;;5027410;28;20032;-69
2021/12/25 13:44:12;;;;;;;11.95;7.65;;;13.80;91.10;;;;;;5027586;28;20127;-69
2021/12/25 13:47:06;;;;;;;14.40;8.93;;;13.70;91.90;;;;;;5029373;28;20030;-69
2021/12/25 13:49:42;;;;;;;16.65;9.02;;;13.60;92.30;;;;;;5006611;28;20083;-69
2021/12/25 13:52:10;;;;;;;15.02;9.50;;;13.60;92.40;;;;;;5008046;28;20034;-69
2021/12/25 13:54:39;;;;;;;16.92;8.95;;;13.40;92.60;;;;;;5007425;28;20030;-69
2021/12/25 13:57:06;;;;;;;15.60;9.90;;;13.40;93.00;;;;;;5007260;28;20675;-69
2021/12/25 13:59:32;;;;;;;14.57;9.57;;;13.40;93.20;;;;;;5007601;28;20057;-69
2021/12/25 14:02:05;;;;;;;17.50;9.95;;;13.40;93.10;;;;;;5007476;28;20033;-69
2021/12/25 14:04:32;;;;;;;14.10;9.27;;;13.30;93.20;;;;;;4991825;28;20026;-69
2021/12/25 14:06:58;;;;;;;15.90;9.65;;;13.20;93.60;;;;;;5007755;28;20054;-69
2021/12/25 14:09:25;;;;;;;18.00;10.57;;;13.20;93.80;;;;;;5007149;28;20168;-69
2021/12/25 14:11:53;;;;;;;17.00;10.57;;;13.10;94.20;;;;;;5006959;28;20088;-69
2021/12/25 14:14:20;;;;;;;16.00;10.40;;;13.10;94.30;;;;;;5007599;28;20091;-69